| time (UTC) | temp F | wind direction | speed knots | gust knots | rain 1hr in | rain 24hr in | rain mn in | humidity % | barometer mb |
| 20260505153004 | 56 | 319 | 3.5 | 8.7 | 0.00 | 0.26 | 0.26 | 66 | 1009.2 |
| 20260505152505 | 55 | 333 | 2.6 | 8.7 | 0.00 | 0.26 | 0.26 | 67 | 1009.2 |
| 20260505152006 | 55 | 345 | 1.7 | 6.1 | 0.00 | 0.26 | 0.26 | 71 | 1009.2 |
| 20260505151505 | 54 | 300 | 2.6 | 7.8 | 0.00 | 0.26 | 0.26 | 70 | 1009.2 |
| 20260505151006 | 54 | 333 | 3.5 | 8.7 | 0.00 | 0.26 | 0.26 | 68 | 1009.4 |
| 20260505150956 | 54 | 273 | 2.6 | 8.7 | 0.00 | 0.26 | 0.26 | 71 | 1009.3 |
| 20260505150224 | 53 | 355 | 3.5 | 12.2 | 0.00 | 0.26 | 0.26 | 74 | 1009.2 |
| 20260505140405 | 51 | 254 | 1.7 | 6.1 | 0.00 | 0.26 | 0.26 | 86 | 1008.8 |
| 20260505124830 | 49 | 241 | 1.7 | 4.3 | 0.13 | 0.25 | 0.25 | 87 | 1007.5 |
| 20260505124331 | 49 | 319 | 0.9 | 3.5 | 0.13 | 0.24 | 0.24 | 87 | 1008.6 |
| 20260505123829 | 50 | 290 | 0.9 | 3.5 | 0.13 | 0.24 | 0.24 | 87 | 1008.9 |
| 20260505123327 | 50 | 293 | 0.9 | 4.3 | 0.14 | 0.23 | 0.23 | 87 | 1009.1 |
| 20260505123318 | 50 | 279 | 0.9 | 4.3 | 0.18 | 0.22 | 0.22 | 87 | 1009.1 |
| 20260505122325 | 50 | 296 | 0.9 | 3.5 | 0.16 | 0.20 | 0.20 | 87 | 1009.4 |
| 20260505121825 | 50 | 216 | 0.9 | 1.7 | 0.15 | 0.19 | 0.19 | 87 | 1009.5 |
| 20260505121325 | 50 | 213 | 0.9 | 2.6 | 0.14 | 0.18 | 0.18 | 86 | 1009.4 |
| 20260505120827 | 50 | 342 | 0.9 | 7.0 | 0.14 | 0.18 | 0.18 | 86 | 1009.2 |
| 20260505120321 | 50 | 78 | 1.7 | 7.0 | 0.13 | 0.17 | 0.17 | 86 | 1008.9 |
| 20260505115815 | 50 | 0 | 1.7 | 7.0 | 0.11 | 0.15 | 0.15 | 85 | 1008.3 |
| 20260505115309 | 51 | 0 | 1.7 | 4.3 | 0.09 | 0.13 | 0.13 | 85 | 1009.3 |
| 20260505114802 | 51 | 0 | 2.6 | 5.2 | 0.08 | 0.12 | 0.12 | 85 | 1009.2 |
| 20260505114256 | 51 | 0 | 3.5 | 8.7 | 0.07 | 0.11 | 0.11 | 84 | 1009.9 |
| 20260505113752 | 51 | 0 | 2.6 | 8.7 | 0.08 | 0.11 | 0.11 | 82 | 1009.2 |
| 20260505113251 | 52 | 0 | 1.7 | 7.0 | 0.06 | 0.09 | 0.10 | 81 | 1008.5 |
| 20260505112752 | 52 | 0 | 1.7 | 9.6 | 0.03 | 0.04 | 0.04 | 80 | 1008.2 |
| 20260505112529 | 52 | 0 | 2.6 | 9.6 | 0.03 | 0.04 | 0.04 | 79 | 1008.6 |
| 20260505111753 | 53 | 0 | 1.7 | 9.6 | 0.03 | 0.04 | 0.04 | 80 | 1008.4 |
| 20260505111512 | 53 | 0 | 1.7 | 9.6 | 0.03 | 0.04 | 0.04 | 80 | 1008.1 |
| 20260505110750 | 53 | 0 | 1.7 | 5.2 | 0.03 | 0.04 | 0.04 | 81 | 1007.9 |
| 20260505110250 | 53 | 329 | 0.9 | 3.5 | 0.03 | 0.04 | 0.04 | 80 | 1007.7 |
| 20260505101745 | 56 | 223 | 2.6 | 7.0 | 0.01 | 0.01 | 0.01 | 73 | 1007.1 |
| 20260505101245 | 56 | 55 | 2.6 | 7.8 | 0.01 | 0.01 | 0.01 | 75 | 1007.1 |
| 20260505100746 | 57 | 314 | 2.6 | 7.8 | 0.01 | 0.01 | 0.01 | 80 | 1007.0 |
| 20260505100247 | 57 | 298 | 1.7 | 7.0 | 0.01 | 0.01 | 0.01 | 81 | 1006.9 |
| 20260505095745 | 57 | 339 | 1.7 | 7.0 | 0.01 | 0.01 | 0.01 | 81 | 1006.8 |
| 20260505095247 | 58 | 302 | 1.7 | 7.0 | 0.01 | 0.01 | 0.01 | 83 | 1006.7 |
| 20260505095013 | 58 | 271 | 1.7 | 8.7 | 0.01 | 0.01 | 0.01 | 83 | 1006.9 |
| 20260505094247 | 59 | 338 | 1.7 | 8.7 | 0.01 | 0.01 | 0.01 | 84 | 1006.6 |
| 20260505093745 | 59 | 339 | 1.7 | 6.1 | 0.01 | 0.01 | 0.01 | 84 | 1006.3 |
| 20260505093245 | 60 | 247 | 1.7 | 7.8 | 0.01 | 0.01 | 0.01 | 84 | 1006.2 |
| 20260505092743 | 60 | 82 | 1.7 | 9.6 | 0.01 | 0.01 | 0.01 | 83 | 1006.4 |
| 20260505092243 | 61 | 48 | 2.6 | 9.6 | 0.01 | 0.01 | 0.01 | 81 | 1006.3 |
| 20260505091744 | 61 | 329 | 2.6 | 13.0 | 0.00 | 0.00 | 0.00 | 81 | 1006.2 |
| 20260505091245 | 61 | 222 | 1.7 | 13.0 | 0.00 | 0.00 | 0.00 | 81 | 1006.3 |
| 20260505090744 | 62 | 287 | 0.9 | 5.2 | 0.00 | 0.00 | 0.00 | 81 | 1006.0 |
| 20260505090237 | 62 | 269 | 0.9 | 3.5 | 0.00 | 0.00 | 0.00 | 81 | 1005.8 |
| 20260505085959 | 62 | 238 | 0.9 | 3.5 | 0.00 | 0.00 | 0.00 | 80 | 1005.6 |
| 20260505085235 | 62 | 260 | 0.9 | 1.7 | 0.00 | 0.00 | 0.00 | 80 | 1005.4 |
| 20260505084736 | 62 | 260 | 0.9 | 1.7 | 0.00 | 0.00 | 0.00 | 80 | 1005.4 |
| 20260505084452 | 63 | 53 | 0.9 | 1.7 | 0.00 | 0.00 | 0.00 | 80 | 1005.1 |
| 20260505083733 | 63 | 53 | 0.9 | 1.7 | 0.00 | 0.00 | 0.00 | 79 | 1004.9 |
| 20260505083234 | 63 | 53 | 0.0 | 0.9 | 0.00 | 0.00 | 0.00 | 77 | 1004.6 |
| 20260505082957 | 63 | 53 | 0.0 | 0.9 | 0.00 | 0.00 | 0.00 | 77 | 1004.5 |
| 20260505082232 | 64 | 53 | 0.0 | 0.9 | 0.00 | 0.00 | 0.00 | 75 | 1004.6 |
| 20260505081947 | 64 | 53 | 0.0 | 1.7 | 0.00 | 0.00 | 0.00 | 73 | 1004.7 |
| 20260505081228 | 64 | 53 | 0.0 | 1.7 | 0.00 | 0.00 | 0.00 | 71 | 1004.8 |
| 20260505080945 | 64 | 85 | 0.0 | 1.7 | 0.00 | 0.00 | 0.00 | 70 | 1004.5 |
| 20260505080224 | 64 | 45 | 0.9 | 1.7 | 0.00 | 0.00 | 0.00 | 70 | 1004.4 |
| 20260505075723 | 64 | 119 | 0.9 | 1.7 | 0.00 | 0.00 | 0.00 | 70 | 1004.8 |
| 20260505075223 | 64 | 88 | 0.9 | 1.7 | 0.00 | 0.00 | 0.00 | 70 | 1004.7 |
| 20260505074722 | 64 | 63 | 0.0 | 1.7 | 0.00 | 0.00 | 0.00 | 69 | 1004.9 |
| 20260505074221 | 64 | 63 | 0.0 | 0.9 | 0.00 | 0.00 | 0.00 | 68 | 1005.0 |
| 20260505073723 | 65 | 63 | 0.0 | 2.6 | 0.00 | 0.00 | 0.00 | 68 | 1005.1 |
| 20260505073442 | 65 | 63 | 0.9 | 2.6 | 0.00 | 0.00 | 0.00 | 67 | 1005.2 |
| 20260505072935 | 65 | 273 | 0.9 | 2.6 | 0.00 | 0.00 | 0.00 | 67 | 1005.3 |
| 20260505072210 | 65 | 317 | 0.0 | 1.7 | 0.00 | 0.00 | 0.00 | 66 | 1005.3 |
| 20260505071704 | 65 | 198 | 0.0 | 1.7 | 0.00 | 0.00 | 0.00 | 65 | 1005.3 |
| 20260505071158 | 65 | 194 | 0.9 | 4.3 | 0.00 | 0.00 | 0.00 | 64 | 1005.3 |
| 20260505070652 | 66 | 340 | 1.7 | 6.1 | 0.00 | 0.00 | 0.00 | 64 | 1005.5 |
| 20260505070146 | 66 | 205 | 1.7 | 6.1 | 0.00 | 0.00 | 0.00 | 63 | 1005.6 |
| 20260505065639 | 66 | 344 | 2.6 | 9.6 | 0.00 | 0.00 | 0.00 | 62 | 1005.5 |
| 20260505065400 | 67 | 155 | 2.6 | 9.6 | 0.00 | 0.00 | 0.00 | 61 | 1005.6 |
| 20260505064628 | 67 | 277 | 2.6 | 10.4 | 0.00 | 0.00 | 0.00 | 60 | 1005.4 |
| 20260505064122 | 68 | 348 | 2.6 | 10.4 | 0.00 | 0.00 | 0.00 | 59 | 1005.7 |
| 20260505063616 | 69 | 257 | 2.6 | 13.9 | 0.00 | 0.00 | 0.00 | 57 | 1005.6 |
| 20260505063110 | 70 | 329 | 3.5 | 13.9 | 0.00 | 0.00 | 0.00 | 57 | 1005.5 |
| 20260505062830 | 70 | 292 | 3.5 | 8.7 | 0.00 | 0.00 | 0.00 | 61 | 1005.2 |
| 20260505062105 | 70 | 187 | 1.7 | 7.8 | 0.00 | 0.00 | 0.00 | 61 | 1004.0 |
| 20260505061604 | 70 | 134 | 1.7 | 7.8 | 0.00 | 0.00 | 0.00 | 61 | 1003.8 |
| 20260505061328 | 70 | 155 | 2.6 | 8.7 | 0.00 | 0.00 | 0.00 | 61 | 1003.8 |
| 20260505060604 | 70 | 199 | 2.6 | 8.7 | 0.00 | 0.00 | 0.00 | 61 | 1003.7 |
| 20260505055604 | 71 | 141 | 2.6 | 8.7 | 0.00 | 0.00 | 0.00 | 60 | 1003.5 |
| 20260505055104 | 71 | 159 | 1.7 | 10.4 | 0.00 | 0.00 | 0.00 | 60 | 1003.4 |
| 20260505054603 | 71 | 139 | 2.6 | 10.4 | 0.00 | 0.00 | 0.00 | 60 | 1003.4 |
| 20260505054104 | 71 | 220 | 2.6 | 13.0 | 0.00 | 0.00 | 0.00 | 60 | 1003.4 |
| 20260505053826 | 71 | 129 | 2.6 | 13.0 | 0.00 | 0.00 | 0.00 | 59 | 1003.4 |
| 20260505053101 | 71 | 333 | 1.7 | 7.8 | 0.00 | 0.00 | 0.00 | 59 | 1003.4 |
| 20260505052600 | 71 | 236 | 2.6 | 11.3 | 0.00 | 0.00 | 0.00 | 59 | 1003.3 |
| 20260505052101 | 71 | 321 | 2.6 | 11.3 | 0.00 | 0.00 | 0.00 | 58 | 1003.3 |
| 20260505051602 | 71 | 193 | 2.6 | 9.6 | 0.00 | 0.00 | 0.00 | 58 | 1002.9 |
| 20260505051101 | 72 | 179 | 2.6 | 9.6 | 0.00 | 0.00 | 0.00 | 58 | 1002.8 |
| 20260505050601 | 72 | 161 | 3.5 | 14.8 | 0.00 | 0.00 | 0.00 | 57 | 1002.7 |
| 20260505041731 | 72 | 137 | 2.6 | 9.6 | 0.00 | 0.00 | 0.00 | 57 | 1002.5 |
| 20260505041001 | 72 | 131 | 2.6 | 7.8 | 0.00 | 0.00 | 0.00 | 57 | 1002.4 |
| 20260505040454 | 72 | 64 | 2.6 | 10.4 | 0.00 | 0.00 | 0.00 | 57 | 1002.5 |
| 20260505040444 | 72 | 121 | 2.6 | 10.4 | 0.00 | 0.00 | 0.00 | 57 | 1002.7 |
| 20260505035703 | 73 | 119 | 2.6 | 7.8 | 0.00 | 0.00 | 0.00 | 56 | 1002.7 |
| 20260505034937 | 73 | 136 | 3.5 | 8.7 | 0.00 | 0.00 | 0.00 | 56 | 1002.9 |
| 20260505034431 | 73 | 148 | 3.5 | 8.7 | 0.00 | 0.00 | 0.00 | 55 | 1003.0 |
| 20260505033925 | 73 | 90 | 2.6 | 7.8 | 0.00 | 0.00 | 0.00 | 55 | 1003.0 |
| 20260505033419 | 73 | 156 | 2.6 | 7.8 | 0.00 | 0.00 | 0.00 | 55 | 1003.1 |
| 20260505032912 | 74 | 146 | 2.6 | 7.8 | 0.00 | 0.00 | 0.00 | 55 | 1003.0 |
| 20260505032406 | 74 | 130 | 2.6 | 10.4 | 0.00 | 0.00 | 0.00 | 55 | 1003.1 |
| 20260505031901 | 74 | 148 | 2.6 | 10.4 | 0.00 | 0.00 | 0.00 | 54 | 1003.0 |
| 20260505031355 | 74 | 146 | 1.7 | 7.8 | 0.00 | 0.00 | 0.00 | 54 | 1002.9 |
| 20260505030849 | 74 | 134 | 1.7 | 7.8 | 0.00 | 0.00 | 0.00 | 54 | 1002.9 |
| 20260505030343 | 74 | 136 | 1.7 | 6.1 | 0.00 | 0.00 | 0.00 | 54 | 1003.0 |
| 20260505030039 | 75 | 147 | 1.7 | 6.1 | 0.00 | 0.00 | 0.00 | 53 | 1002.9 |
| 20260505025928 | 75 | 142 | 1.7 | 6.1 | 0.00 | 0.00 | 0.00 | 53 | 1003.0 |
| 20260505024833 | 75 | 187 | 2.6 | 7.8 | 0.00 | 0.00 | 0.00 | 53 | 1002.8 |
| 20260505024334 | 75 | 169 | 2.6 | 7.8 | 0.00 | 0.00 | 0.00 | 53 | 1002.7 |
| 20260505023832 | 75 | 118 | 1.7 | 7.8 | 0.00 | 0.00 | 0.00 | 53 | 1002.6 |
| 20260505023552 | 75 | 148 | 1.7 | 6.1 | 0.00 | 0.00 | 0.00 | 53 | 1002.6 |
| 20260505022830 | 75 | 80 | 1.7 | 5.2 | 0.00 | 0.00 | 0.00 | 52 | 1002.5 |
| 20260505022332 | 75 | 163 | 2.6 | 7.8 | 0.00 | 0.00 | 0.00 | 53 | 1002.5 |
| 20260505021829 | 75 | 125 | 2.6 | 7.8 | 0.00 | 0.00 | 0.00 | 53 | 1002.3 |
| 20260505021550 | 75 | 155 | 1.7 | 7.0 | 0.00 | 0.00 | 0.00 | 52 | 1002.2 |
| 20260505020828 | 75 | 69 | 1.7 | 7.0 | 0.00 | 0.00 | 0.00 | 52 | 1002.0 |
| 20260505020328 | 76 | 88 | 1.7 | 7.0 | 0.00 | 0.00 | 0.00 | 52 | 1002.0 |
| 20260505015827 | 76 | 116 | 2.6 | 7.0 | 0.00 | 0.00 | 0.00 | 52 | 1002.0 |
| 20260505015326 | 75 | 124 | 2.6 | 7.0 | 0.00 | 0.00 | 0.00 | 52 | 1001.9 |
| 20260505014826 | 75 | 127 | 2.6 | 7.8 | 0.00 | 0.00 | 0.00 | 52 | 1001.8 |
| 20260505014325 | 75 | 143 | 2.6 | 7.8 | 0.00 | 0.00 | 0.00 | 53 | 1001.7 |
| 20260505013823 | 75 | 97 | 1.7 | 7.0 | 0.00 | 0.00 | 0.00 | 53 | 1001.7 |
| 20260505013323 | 75 | 138 | 1.7 | 7.8 | 0.00 | 0.00 | 0.00 | 53 | 1001.7 |
| 20260505012821 | 75 | 137 | 1.7 | 7.8 | 0.00 | 0.00 | 0.00 | 53 | 1001.6 |
| 20260505012317 | 75 | 132 | 1.7 | 5.2 | 0.00 | 0.00 | 0.00 | 53 | 1001.5 |
| 20260505011818 | 75 | 103 | 0.9 | 5.2 | 0.00 | 0.00 | 0.00 | 53 | 1001.5 |
| 20260505011318 | 75 | 162 | 0.9 | 3.5 | 0.00 | 0.00 | 0.00 | 53 | 1001.4 |
| 20260505010819 | 76 | 92 | 0.9 | 3.5 | 0.00 | 0.00 | 0.00 | 53 | 1001.5 |
| 20260505010318 | 76 | 142 | 0.9 | 4.3 | 0.00 | 0.00 | 0.00 | 53 | 1001.4 |
| 20260505010046 | 76 | 145 | 1.7 | 6.1 | 0.00 | 0.00 | 0.00 | 53 | 1001.4 |
| 20260505005543 | 76 | 134 | 1.7 | 6.1 | 0.00 | 0.00 | 0.00 | 52 | 1001.4 |
| 20260505004817 | 76 | 88 | 1.7 | 6.1 | 0.00 | 0.00 | 0.00 | 52 | 1001.3 |
| 20260505004318 | 77 | 137 | 1.7 | 4.3 | 0.00 | 0.00 | 0.00 | 52 | 1001.2 |
| 20260505003819 | 77 | 113 | 1.7 | 6.1 | 0.00 | 0.00 | 0.00 | 51 | 1001.2 |
| 20260505003537 | 78 | 141 | 1.7 | 6.1 | 0.00 | 0.00 | 0.00 | 51 | 1001.1 |
| 20260505002814 | 78 | 149 | 1.7 | 4.3 | 0.00 | 0.00 | 0.00 | 50 | 1001.1 |
| 20260505002315 | 78 | 163 | 1.7 | 7.0 | 0.00 | 0.00 | 0.00 | 50 | 1001.1 |
| 20260505001813 | 78 | 163 | 1.7 | 7.0 | 0.00 | 0.00 | 0.00 | 51 | 1001.0 |
| 20260505001315 | 78 | 89 | 1.7 | 10.4 | 0.00 | 0.00 | 0.00 | 50 | 1001.1 |
| 20260505001035 | 78 | 173 | 1.7 | 10.4 | 0.00 | 0.00 | 0.00 | 50 | 1001.1 |
| 20260505000314 | 79 | 142 | 0.9 | 5.2 | 0.00 | 0.00 | 0.00 | 50 | 1001.0 |
| 20260504235815 | 79 | 167 | 1.7 | 7.0 | 0.00 | 0.00 | 0.00 | 49 | 1001.0 |
| 20260504235314 | 79 | 149 | 1.7 | 7.0 | 0.00 | 0.00 | 0.00 | 49 | 1001.0 |
| 20260504234809 | 79 | 159 | 1.7 | 5.2 | 0.00 | 0.00 | 0.00 | 49 | 1001.1 |
| 20260504234308 | 80 | 134 | 1.7 | 7.0 | 0.00 | 0.00 | 0.00 | 48 | 1001.0 |
| 20260504233805 | 80 | 166 | 2.6 | 7.8 | 0.00 | 0.00 | 0.00 | 49 | 1001.1 |
| 20260504233304 | 80 | 147 | 2.6 | 8.7 | 0.00 | 0.00 | 0.00 | 48 | 1001.1 |
| 20260504232803 | 80 | 131 | 3.5 | 9.6 | 0.00 | 0.00 | 0.00 | 47 | 1001.1 |
| 20260504232304 | 80 | 146 | 2.6 | 9.6 | 0.00 | 0.00 | 0.00 | 47 | 1001.2 |
| 20260504232248 | 80 | 153 | 2.6 | 9.6 | 0.00 | 0.00 | 0.00 | 48 | 1001.3 |
| 20260504231304 | 80 | 109 | 2.6 | 10.4 | 0.00 | 0.00 | 0.00 | 47 | 1001.3 |
| 20260504230803 | 80 | 131 | 2.6 | 10.4 | 0.00 | 0.00 | 0.00 | 47 | 1001.4 |
| 20260504230304 | 80 | 142 | 3.5 | 10.4 | 0.00 | 0.00 | 0.00 | 46 | 1001.4 |
| 20260504225802 | 80 | 96 | 2.6 | 10.4 | 0.00 | 0.00 | 0.00 | 47 | 1001.4 |
| 20260504225300 | 80 | 145 | 2.6 | 10.4 | 0.00 | 0.00 | 0.00 | 46 | 1001.5 |
| 20260504224759 | 81 | 65 | 2.6 | 11.3 | 0.00 | 0.00 | 0.00 | 46 | 1001.4 |
| 20260504224259 | 80 | 129 | 1.7 | 11.3 | 0.00 | 0.00 | 0.00 | 47 | 1001.5 |
| 20260504223758 | 80 | 130 | 2.6 | 8.7 | 0.00 | 0.00 | 0.00 | 47 | 1001.5 |
| 20260504223257 | 81 | 148 | 2.6 | 8.7 | 0.00 | 0.00 | 0.00 | 47 | 1001.7 |
| 20260504222758 | 81 | 138 | 2.6 | 7.0 | 0.00 | 0.00 | 0.00 | 46 | 1001.7 |
| 20260504222258 | 81 | 113 | 2.6 | 8.7 | 0.00 | 0.00 | 0.00 | 46 | 1001.8 |
| 20260504221752 | 81 | 205 | 2.6 | 9.6 | 0.00 | 0.00 | 0.00 | 45 | 1001.8 |
| 20260504221245 | 81 | 174 | 1.7 | 9.6 | 0.00 | 0.00 | 0.00 | 48 | 1001.7 |
| 20260504220739 | 82 | 155 | 1.7 | 7.0 | 0.00 | 0.00 | 0.00 | 48 | 1001.7 |
| 20260504220235 | 82 | 119 | 1.7 | 7.0 | 0.00 | 0.00 | 0.00 | 48 | 1001.8 |
| 20260504215728 | 82 | 142 | 2.6 | 7.8 | 0.00 | 0.00 | 0.00 | 48 | 1001.7 |
| 20260504215439 | 82 | 101 | 2.6 | 7.8 | 0.00 | 0.00 | 0.00 | 47 | 1001.8 |
| 20260504214716 | 82 | 270 | 2.6 | 7.8 | 0.00 | 0.00 | 0.00 | 48 | 1001.7 |
| 20260504214209 | 81 | 93 | 2.6 | 7.8 | 0.00 | 0.00 | 0.00 | 48 | 1001.8 |
| 20260504213703 | 81 | 81 | 2.6 | 7.8 | 0.00 | 0.00 | 0.00 | 50 | 1001.9 |
| 20260504213157 | 81 | 196 | 2.6 | 9.6 | 0.00 | 0.00 | 0.00 | 50 | 1001.8 |
| 20260504212652 | 80 | 155 | 3.5 | 10.4 | 0.00 | 0.00 | 0.00 | 50 | 1001.9 |
| 20260504212146 | 80 | 49 | 4.3 | 11.3 | 0.00 | 0.00 | 0.00 | 52 | 1001.9 |
| 20260504211908 | 80 | 174 | 3.5 | 11.3 | 0.00 | 0.00 | 0.00 | 53 | 1002.0 |
| 20260504211134 | 80 | 144 | 3.5 | 10.4 | 0.00 | 0.00 | 0.00 | 55 | 1002.0 |
| 20260504210851 | 79 | 96 | 3.5 | 10.4 | 0.00 | 0.00 | 0.00 | 57 | 1002.0 |
| 20260504210343 | 79 | 142 | 3.5 | 8.7 | 0.00 | 0.00 | 0.00 | 58 | 1002.0 |
| 20260504205841 | 78 | 100 | 2.6 | 7.0 | 0.00 | 0.00 | 0.00 | 59 | 1001.9 |
| 20260504205109 | 78 | 138 | 2.6 | 7.0 | 0.00 | 0.00 | 0.00 | 61 | 1002.0 |
| 20260504204604 | 77 | 322 | 3.5 | 9.6 | 0.00 | 0.00 | 0.00 | 61 | 1002.1 |
| 20260504204058 | 77 | 98 | 3.5 | 9.6 | 0.00 | 0.00 | 0.00 | 60 | 1002.3 |
| 20260504203551 | 77 | 96 | 2.6 | 8.7 | 0.00 | 0.00 | 0.00 | 59 | 1002.4 |
| 20260504203046 | 77 | 98 | 2.6 | 8.7 | 0.00 | 0.00 | 0.00 | 59 | 1002.4 |
| 20260504202540 | 77 | 78 | 2.6 | 7.8 | 0.00 | 0.00 | 0.00 | 61 | 1002.6 |
| 20260504202034 | 77 | 160 | 2.6 | 8.7 | 0.00 | 0.00 | 0.00 | 59 | 1002.5 |
| 20260504201528 | 76 | 120 | 3.5 | 8.7 | 0.00 | 0.00 | 0.00 | 59 | 1002.5 |
| 20260504201022 | 76 | 106 | 3.5 | 9.6 | 0.00 | 0.00 | 0.00 | 60 | 1002.6 |
| 20260504200737 | 75 | 113 | 2.6 | 9.6 | 0.00 | 0.00 | 0.00 | 61 | 1002.7 |
| 20260504200009 | 75 | 150 | 3.5 | 9.6 | 0.00 | 0.00 | 0.00 | 62 | 1003.0 |
| 20260504195504 | 74 | 113 | 3.5 | 9.6 | 0.00 | 0.00 | 0.00 | 63 | 1002.8 |
| 20260504194958 | 74 | 144 | 2.6 | 8.7 | 0.00 | 0.00 | 0.00 | 64 | 1002.9 |
| 20260504194452 | 73 | 88 | 2.6 | 8.7 | 0.00 | 0.00 | 0.00 | 65 | 1003.0 |
| 20260504193946 | 73 | 144 | 3.5 | 8.7 | 0.00 | 0.00 | 0.00 | 63 | 1003.0 |
| 20260504193440 | 73 | 116 | 3.5 | 8.7 | 0.00 | 0.00 | 0.00 | 65 | 1003.1 |
| 20260504192934 | 72 | 113 | 3.5 | 10.4 | 0.00 | 0.00 | 0.00 | 67 | 1003.2 |
| 20260504192428 | 71 | 105 | 3.5 | 11.3 | 0.00 | 0.00 | 0.00 | 68 | 1003.3 |
| 20260504191921 | 71 | 82 | 2.6 | 11.3 | 0.00 | 0.00 | 0.00 | 68 | 1003.3 |
| 20260504191415 | 69 | 127 | 2.6 | 7.0 | 0.00 | 0.00 | 0.00 | 73 | 1003.5 |
| 20260504190910 | 68 | 122 | 2.6 | 7.8 | 0.00 | 0.00 | 0.00 | 75 | 1003.2 |
| 20260504190404 | 66 | 0 | 2.6 | 7.8 | 0.00 | 0.00 | 0.00 | 75 | 1003.0 |
| 20260504190346 | 66 | 65 | 2.6 | 7.8 | 0.00 | 0.00 | 0.00 | 75 | 1003.1 |
| 20260504185352 | 65 | 80 | 2.6 | 8.7 | 0.00 | 0.00 | 0.00 | 75 | 1002.8 |
| 20260504184846 | 65 | 72 | 3.5 | 9.6 | 0.00 | 0.00 | 0.00 | 75 | 1003.0 |
| 20260504184340 | 66 | 58 | 2.6 | 9.6 | 0.00 | 0.00 | 0.00 | 74 | 1003.5 |
| 20260504183834 | 66 | 115 | 3.5 | 7.8 | 0.00 | 0.00 | 0.00 | 72 | 1004.2 |
| 20260504183328 | 67 | 146 | 3.5 | 7.8 | 0.00 | 0.00 | 0.00 | 71 | 1004.2 |
| 20260504183040 | 67 | 70 | 2.6 | 7.8 | 0.00 | 0.00 | 0.00 | 70 | 1004.3 |
| 20260504182317 | 67 | 102 | 2.6 | 6.1 | 0.00 | 0.00 | 0.00 | 70 | 1004.5 |
| 20260504181809 | 67 | 88 | 2.6 | 7.8 | 0.00 | 0.00 | 0.00 | 71 | 1004.5 |
| 20260504181307 | 67 | 88 | 2.6 | 7.8 | 0.00 | 0.00 | 0.00 | 72 | 1004.3 |
| 20260504180807 | 66 | 153 | 2.6 | 6.1 | 0.00 | 0.00 | 0.00 | 73 | 1004.1 |
| 20260504180306 | 66 | 146 | 1.7 | 6.1 | 0.00 | 0.00 | 0.00 | 72 | 1004.3 |
| 20260504175806 | 66 | 138 | 1.7 | 5.2 | 0.00 | 0.00 | 0.00 | 73 | 1004.3 |
| 20260504175306 | 66 | 116 | 1.7 | 5.2 | 0.00 | 0.00 | 0.00 | 73 | 1004.3 |
| 20260504175026 | 66 | 57 | 1.7 | 6.1 | 0.00 | 0.00 | 0.00 | 73 | 1004.2 |
| 20260504174306 | 66 | 140 | 1.7 | 6.1 | 0.00 | 0.00 | 0.00 | 75 | 1004.3 |
| 20260504173806 | 66 | 96 | 1.7 | 5.2 | 0.00 | 0.00 | 0.00 | 75 | 1004.5 |
| 20260504173523 | 66 | 88 | 2.6 | 7.0 | 0.00 | 0.00 | 0.00 | 73 | 1004.7 |
| 20260504172805 | 66 | 88 | 2.6 | 7.8 | 0.00 | 0.00 | 0.00 | 72 | 1004.7 |
| 20260504172306 | 66 | 69 | 1.7 | 7.8 | 0.00 | 0.00 | 0.00 | 71 | 1004.8 |
| 20260504171805 | 65 | 80 | 1.7 | 7.0 | 0.00 | 0.00 | 0.00 | 70 | 1004.9 |
| 20260504171305 | 65 | 112 | 2.6 | 7.0 | 0.00 | 0.00 | 0.00 | 71 | 1004.9 |
| 20260504170806 | 65 | 115 | 1.7 | 6.1 | 0.00 | 0.00 | 0.00 | 72 | 1004.8 |
| 20260504170301 | 64 | 130 | 1.7 | 6.1 | 0.00 | 0.00 | 0.00 | 72 | 1004.9 |
| 20260504160258 | 65 | 101 | 2.6 | 9.6 | 0.00 | 0.00 | 0.00 | 66 | 1005.2 |